sensor_id;sensor_type;location;lat;lon;timestamp;temperature;humidity
66053;HTU21D;52833;45.112;39.556;2022-08-18T00:01:25;25.56;68.43
66053;HTU21D;52833;45.112;39.556;2022-08-18T00:03:51;25.54;68.44
66053;HTU21D;52833;45.112;39.556;2022-08-18T00:06:19;25.52;68.41
66053;HTU21D;52833;45.112;39.556;2022-08-18T00:08:45;25.52;68.42
66053;HTU21D;52833;45.112;39.556;2022-08-18T00:11:12;25.52;68.46
66053;HTU21D;52833;45.112;39.556;2022-08-18T00:13:38;25.51;68.49
66053;HTU21D;52833;45.112;39.556;2022-08-18T00:16:05;25.50;68.56
66053;HTU21D;52833;45.112;39.556;2022-08-18T00:18:31;25.48;68.58
66053;HTU21D;52833;45.112;39.556;2022-08-18T00:20:58;25.47;68.58
66053;HTU21D;52833;45.112;39.556;2022-08-18T00:23:25;25.47;68.61
66053;HTU21D;52833;45.112;39.556;2022-08-18T00:25:54;25.46;68.70
66053;HTU21D;52833;45.112;39.556;2022-08-18T00:28:23;25.43;68.78
66053;HTU21D;52833;45.112;39.556;2022-08-18T00:30:49;25.42;68.83
66053;HTU21D;52833;45.112;39.556;2022-08-18T00:33:16;25.39;68.84
66053;HTU21D;52833;45.112;39.556;2022-08-18T00:35:42;25.37;68.87
66053;HTU21D;52833;45.112;39.556;2022-08-18T00:38:09;25.36;68.91
66053;HTU21D;52833;45.112;39.556;2022-08-18T00:40:44;25.35;68.94
66053;HTU21D;52833;45.112;39.556;2022-08-18T00:43:44;25.32;69.00
66053;HTU21D;52833;45.112;39.556;2022-08-18T00:46:18;25.32;68.93
66053;HTU21D;52833;45.112;39.556;2022-08-18T00:48:46;25.29;68.99
66053;HTU21D;52833;45.112;39.556;2022-08-18T00:51:25;25.28;69.43
66053;HTU21D;52833;45.112;39.556;2022-08-18T00:54:05;25.23;69.21
66053;HTU21D;52833;45.112;39.556;2022-08-18T00:56:41;25.20;69.20
66053;HTU21D;52833;45.112;39.556;2022-08-18T00:59:16;25.17;69.30
66053;HTU21D;52833;45.112;39.556;2022-08-18T01:01:48;25.14;69.32
66053;HTU21D;52833;45.112;39.556;2022-08-18T01:04:38;25.10;69.55
66053;HTU21D;52833;45.112;39.556;2022-08-18T01:07:14;25.08;69.36
66053;HTU21D;52833;45.112;39.556;2022-08-18T01:09:47;25.04;69.33
66053;HTU21D;52833;45.112;39.556;2022-08-18T01:12:14;25.03;69.29
66053;HTU21D;52833;45.112;39.556;2022-08-18T01:14:41;25.02;69.41
66053;HTU21D;52833;45.112;39.556;2022-08-18T01:17:07;25.00;69.40
66053;HTU21D;52833;45.112;39.556;2022-08-18T01:19:54;24.98;69.44
66053;HTU21D;52833;45.112;39.556;2022-08-18T01:25:19;24.93;69.54
66053;HTU21D;52833;45.112;39.556;2022-08-18T01:28:05;24.92;69.50
66053;HTU21D;52833;45.112;39.556;2022-08-18T01:30:44;24.88;69.53
66053;HTU21D;52833;45.112;39.556;2022-08-18T01:33:12;24.86;69.55
66053;HTU21D;52833;45.112;39.556;2022-08-18T01:35:39;24.83;69.59
66053;HTU21D;52833;45.112;39.556;2022-08-18T01:38:06;24.78;69.61
66053;HTU21D;52833;45.112;39.556;2022-08-18T01:40:33;24.75;69.59
66053;HTU21D;52833;45.112;39.556;2022-08-18T01:43:00;24.71;69.64
66053;HTU21D;52833;45.112;39.556;2022-08-18T01:45:30;24.66;69.66
66053;HTU21D;52833;45.112;39.556;2022-08-18T01:48:00;24.63;69.74
66053;HTU21D;52833;45.112;39.556;2022-08-18T01:50:29;24.58;69.79
66053;HTU21D;52833;45.112;39.556;2022-08-18T01:53:00;24.54;69.82
66053;HTU21D;52833;45.112;39.556;2022-08-18T01:55:27;24.48;69.84
66053;HTU21D;52833;45.112;39.556;2022-08-18T01:57:54;24.45;69.87
66053;HTU21D;52833;45.112;39.556;2022-08-18T02:00:20;24.41;69.93
66053;HTU21D;52833;45.112;39.556;2022-08-18T02:02:48;24.35;70.03
66053;HTU21D;52833;45.112;39.556;2022-08-18T02:05:28;24.31;70.21
66053;HTU21D;52833;45.112;39.556;2022-08-18T02:07:56;24.28;70.19
66053;HTU21D;52833;45.112;39.556;2022-08-18T02:10:23;24.24;70.29
66053;HTU21D;52833;45.112;39.556;2022-08-18T02:12:50;24.23;70.38
66053;HTU21D;52833;45.112;39.556;2022-08-18T02:15:17;24.18;70.42
66053;HTU21D;52833;45.112;39.556;2022-08-18T02:17:45;24.16;70.52
66053;HTU21D;52833;45.112;39.556;2022-08-18T02:20:14;24.13;70.58
66053;HTU21D;52833;45.112;39.556;2022-08-18T02:22:43;24.13;70.66
66053;HTU21D;52833;45.112;39.556;2022-08-18T02:25:12;24.12;70.75
66053;HTU21D;52833;45.112;39.556;2022-08-18T02:27:39;24.10;70.78
66053;HTU21D;52833;45.112;39.556;2022-08-18T02:30:08;24.09;70.79
66053;HTU21D;52833;45.112;39.556;2022-08-18T02:32:36;24.09;70.76
66053;HTU21D;52833;45.112;39.556;2022-08-18T02:35:04;24.06;70.80
66053;HTU21D;52833;45.112;39.556;2022-08-18T02:37:32;24.05;70.79
66053;HTU21D;52833;45.112;39.556;2022-08-18T02:39:58;24.04;70.77
66053;HTU21D;52833;45.112;39.556;2022-08-18T02:42:27;24.02;70.76
66053;HTU21D;52833;45.112;39.556;2022-08-18T02:44:54;24.01;70.71
66053;HTU21D;52833;45.112;39.556;2022-08-18T02:47:21;24.01;70.71
66053;HTU21D;52833;45.112;39.556;2022-08-18T02:49:48;23.99;70.76
66053;HTU21D;52833;45.112;39.556;2022-08-18T02:52:15;23.99;70.75
66053;HTU21D;52833;45.112;39.556;2022-08-18T02:54:42;23.99;70.74
66053;HTU21D;52833;45.112;39.556;2022-08-18T02:57:10;23.98;70.77
66053;HTU21D;52833;45.112;39.556;2022-08-18T02:59:39;23.98;70.80
66053;HTU21D;52833;45.112;39.556;2022-08-18T03:02:07;23.98;70.80
66053;HTU21D;52833;45.112;39.556;2022-08-18T03:04:34;23.99;70.75
66053;HTU21D;52833;45.112;39.556;2022-08-18T03:07:03;24.02;70.75
66053;HTU21D;52833;45.112;39.556;2022-08-18T03:09:31;24.06;70.77
66053;HTU21D;52833;45.112;39.556;2022-08-18T03:11:59;24.11;70.76
66053;HTU21D;52833;45.112;39.556;2022-08-18T03:14:27;24.14;70.74
66053;HTU21D;52833;45.112;39.556;2022-08-18T03:16:54;24.18;70.68
66053;HTU21D;52833;45.112;39.556;2022-08-18T03:19:25;24.23;70.64
66053;HTU21D;52833;45.112;39.556;2022-08-18T03:21:53;24.27;70.58
66053;HTU21D;52833;45.112;39.556;2022-08-18T03:24:21;24.33;70.51
66053;HTU21D;52833;45.112;39.556;2022-08-18T03:26:47;24.39;70.42
66053;HTU21D;52833;45.112;39.556;2022-08-18T03:29:14;24.45;70.27
66053;HTU21D;52833;45.112;39.556;2022-08-18T03:31:42;24.50;70.17
66053;HTU21D;52833;45.112;39.556;2022-08-18T03:34:08;24.55;70.10
66053;HTU21D;52833;45.112;39.556;2022-08-18T03:36:36;24.59;70.05
66053;HTU21D;52833;45.112;39.556;2022-08-18T03:39:06;24.63;70.03
66053;HTU21D;52833;45.112;39.556;2022-08-18T03:41:33;24.70;69.92
66053;HTU21D;52833;45.112;39.556;2022-08-18T03:44:01;24.77;69.80
66053;HTU21D;52833;45.112;39.556;2022-08-18T03:46:28;24.84;69.64
66053;HTU21D;52833;45.112;39.556;2022-08-18T03:48:56;24.87;69.45
66053;HTU21D;52833;45.112;39.556;2022-08-18T03:51:26;24.91;69.31
66053;HTU21D;52833;45.112;39.556;2022-08-18T03:53:56;24.99;69.26
66053;HTU21D;52833;45.112;39.556;2022-08-18T03:56:28;25.07;69.18
66053;HTU21D;52833;45.112;39.556;2022-08-18T03:59:01;25.18;69.10
66053;HTU21D;52833;45.112;39.556;2022-08-18T04:01:31;25.30;68.90
66053;HTU21D;52833;45.112;39.556;2022-08-18T04:04:02;25.40;68.76
66053;HTU21D;52833;45.112;39.556;2022-08-18T04:06:36;25.53;68.57
66053;HTU21D;52833;45.112;39.556;2022-08-18T04:09:08;25.66;68.33
66053;HTU21D;52833;45.112;39.556;2022-08-18T04:11:37;25.80;68.05
66053;HTU21D;52833;45.112;39.556;2022-08-18T04:14:04;25.94;67.66
66053;HTU21D;52833;45.112;39.556;2022-08-18T04:16:32;26.08;67.36
66053;HTU21D;52833;45.112;39.556;2022-08-18T04:19:00;26.22;67.20
66053;HTU21D;52833;45.112;39.556;2022-08-18T04:21:36;26.39;67.00
66053;HTU21D;52833;45.112;39.556;2022-08-18T04:24:04;26.56;66.62
66053;HTU21D;52833;45.112;39.556;2022-08-18T04:26:38;26.69;66.18
66053;HTU21D;52833;45.112;39.556;2022-08-18T04:29:07;26.78;65.91
66053;HTU21D;52833;45.112;39.556;2022-08-18T04:31:34;26.87;65.95
66053;HTU21D;52833;45.112;39.556;2022-08-18T04:34:01;26.95;66.00
66053;HTU21D;52833;45.112;39.556;2022-08-18T04:36:30;27.00;65.85
66053;HTU21D;52833;45.112;39.556;2022-08-18T04:38:57;27.00;65.73
66053;HTU21D;52833;45.112;39.556;2022-08-18T04:41:25;27.00;65.91
66053;HTU21D;52833;45.112;39.556;2022-08-18T04:43:59;27.01;65.88
66053;HTU21D;52833;45.112;39.556;2022-08-18T04:46:28;27.02;65.82
66053;HTU21D;52833;45.112;39.556;2022-08-18T04:48:57;27.02;65.92
66053;HTU21D;52833;45.112;39.556;2022-08-18T04:51:26;27.04;66.08
66053;HTU21D;52833;45.112;39.556;2022-08-18T04:53:55;27.08;65.92
66053;HTU21D;52833;45.112;39.556;2022-08-18T04:56:32;27.09;65.96
66053;HTU21D;52833;45.112;39.556;2022-08-18T04:59:11;27.12;66.06
66053;HTU21D;52833;45.112;39.556;2022-08-18T05:01:43;27.15;66.02
66053;HTU21D;52833;45.112;39.556;2022-08-18T05:04:14;27.19;65.88
66053;HTU21D;52833;45.112;39.556;2022-08-18T05:06:43;27.16;65.69
66053;HTU21D;52833;45.112;39.556;2022-08-18T05:09:12;27.12;65.83
66053;HTU21D;52833;45.112;39.556;2022-08-18T05:11:41;27.08;66.02
66053;HTU21D;52833;45.112;39.556;2022-08-18T05:14:10;27.04;66.14
66053;HTU21D;52833;45.112;39.556;2022-08-18T05:16:38;26.98;66.27
66053;HTU21D;52833;45.112;39.556;2022-08-18T05:19:07;26.95;66.39
66053;HTU21D;52833;45.112;39.556;2022-08-18T05:21:34;26.93;66.44
66053;HTU21D;52833;45.112;39.556;2022-08-18T05:24:03;26.89;66.42
66053;HTU21D;52833;45.112;39.556;2022-08-18T05:26:30;26.87;66.53
66053;HTU21D;52833;45.112;39.556;2022-08-18T05:28:57;26.87;66.87
66053;HTU21D;52833;45.112;39.556;2022-08-18T05:31:26;26.89;67.06
66053;HTU21D;52833;45.112;39.556;2022-08-18T05:33:54;26.89;67.08
66053;HTU21D;52833;45.112;39.556;2022-08-18T05:42:04;26.83;66.91
66053;HTU21D;52833;45.112;39.556;2022-08-18T05:44:36;26.86;67.11
66053;HTU21D;52833;45.112;39.556;2022-08-18T05:49:37;27.10;67.16
66053;HTU21D;52833;45.112;39.556;2022-08-18T05:54:55;27.38;66.61
66053;HTU21D;52833;45.112;39.556;2022-08-18T05:57:51;27.52;66.26
66053;HTU21D;52833;45.112;39.556;2022-08-18T06:00:20;27.63;66.12
66053;HTU21D;52833;45.112;39.556;2022-08-18T06:03:03;27.78;66.15
66053;HTU21D;52833;45.112;39.556;2022-08-18T06:05:40;28.04;65.88
66053;HTU21D;52833;45.112;39.556;2022-08-18T06:08:36;28.38;65.29
66053;HTU21D;52833;45.112;39.556;2022-08-18T06:11:04;28.67;64.88
66053;HTU21D;52833;45.112;39.556;2022-08-18T06:13:38;29.01;64.43
66053;HTU21D;52833;45.112;39.556;2022-08-18T06:43:32;31.93;53.97
66053;HTU21D;52833;45.112;39.556;2022-08-18T06:46:05;31.99;54.36
66053;HTU21D;52833;45.112;39.556;2022-08-18T06:48:52;32.07;54.67
66053;HTU21D;52833;45.112;39.556;2022-08-18T06:51:21;32.11;54.84
66053;HTU21D;52833;45.112;39.556;2022-08-18T06:53:54;32.24;54.89
66053;HTU21D;52833;45.112;39.556;2022-08-18T06:56:32;32.42;54.75
66053;HTU21D;52833;45.112;39.556;2022-08-18T07:01:53;32.83;53.92
66053;HTU21D;52833;45.112;39.556;2022-08-18T07:07:35;32.96;53.53
66053;HTU21D;52833;45.112;39.556;2022-08-18T07:10:06;32.99;53.27
66053;HTU21D;52833;45.112;39.556;2022-08-18T07:12:40;32.91;52.99
66053;HTU21D;52833;45.112;39.556;2022-08-18T07:15:11;32.79;52.87
66053;HTU21D;52833;45.112;39.556;2022-08-18T07:17:38;32.75;53.15
66053;HTU21D;52833;45.112;39.556;2022-08-18T07:22:59;32.68;52.87
66053;HTU21D;52833;45.112;39.556;2022-08-18T07:25:40;32.60;52.74
66053;HTU21D;52833;45.112;39.556;2022-08-18T07:33:40;32.59;53.00
66053;HTU21D;52833;45.112;39.556;2022-08-18T07:36:10;32.76;52.82
66053;HTU21D;52833;45.112;39.556;2022-08-18T07:38:50;32.92;52.71
66053;HTU21D;52833;45.112;39.556;2022-08-18T07:48:57;33.72;51.14
66053;HTU21D;52833;45.112;39.556;2022-08-18T07:51:34;33.89;50.76
66053;HTU21D;52833;45.112;39.556;2022-08-18T07:57:18;34.26;50.27
66053;HTU21D;52833;45.112;39.556;2022-08-18T08:14:40;34.81;49.16
66053;HTU21D;52833;45.112;39.556;2022-08-18T08:16:50;34.82;48.93
66053;HTU21D;52833;45.112;39.556;2022-08-18T08:19:43;34.85;48.79
66053;HTU21D;52833;45.112;39.556;2022-08-18T08:24:55;35.03;48.73
66053;HTU21D;52833;45.112;39.556;2022-08-18T08:30:44;35.42;48.14
66053;HTU21D;52833;45.112;39.556;2022-08-18T08:33:25;35.59;47.89
66053;HTU21D;52833;45.112;39.556;2022-08-18T08:36:04;35.77;47.63
66053;HTU21D;52833;45.112;39.556;2022-08-18T08:38:54;35.93;46.67
66053;HTU21D;52833;45.112;39.556;2022-08-18T08:41:58;36.01;46.87
66053;HTU21D;52833;45.112;39.556;2022-08-18T08:44:50;36.12;46.38
66053;HTU21D;52833;45.112;39.556;2022-08-18T08:48:02;36.17;46.44
66053;HTU21D;52833;45.112;39.556;2022-08-18T08:50:25;36.28;46.44
66053;HTU21D;52833;45.112;39.556;2022-08-18T08:53:05;36.37;46.26
66053;HTU21D;52833;45.112;39.556;2022-08-18T08:55:42;36.52;45.97
66053;HTU21D;52833;45.112;39.556;2022-08-18T09:01:18;36.58;45.35
66053;HTU21D;52833;45.112;39.556;2022-08-18T09:21:07;36.51;44.49
66053;HTU21D;52833;45.112;39.556;2022-08-18T09:23:41;36.52;44.51
66053;HTU21D;52833;45.112;39.556;2022-08-18T09:29:20;36.66;44.56
66053;HTU21D;52833;45.112;39.556;2022-08-18T09:38:12;36.87;44.00
66053;HTU21D;52833;45.112;39.556;2022-08-18T09:41:10;36.91;43.64
66053;HTU21D;52833;45.112;39.556;2022-08-18T09:44:00;36.93;43.67
66053;HTU21D;52833;45.112;39.556;2022-08-18T09:51:55;37.06;43.01
66053;HTU21D;52833;45.112;39.556;2022-08-18T09:54:32;37.05;42.88
66053;HTU21D;52833;45.112;39.556;2022-08-18T10:07:49;37.21;42.63
66053;HTU21D;52833;45.112;39.556;2022-08-18T10:13:40;37.29;42.59
66053;HTU21D;52833;45.112;39.556;2022-08-18T10:19:16;37.38;42.50
66053;HTU21D;52833;45.112;39.556;2022-08-18T10:24:29;37.51;42.48
66053;HTU21D;52833;45.112;39.556;2022-08-18T10:27:01;37.56;42.30
66053;HTU21D;52833;45.112;39.556;2022-08-18T10:34:46;37.61;42.21
66053;HTU21D;52833;45.112;39.556;2022-08-18T10:43:07;37.74;42.00
66053;HTU21D;52833;45.112;39.556;2022-08-18T10:45:42;37.77;41.90
66053;HTU21D;52833;45.112;39.556;2022-08-18T10:48:31;37.76;41.75
66053;HTU21D;52833;45.112;39.556;2022-08-18T10:51:20;37.77;41.74
66053;HTU21D;52833;45.112;39.556;2022-08-18T10:56:50;37.75;41.64
66053;HTU21D;52833;45.112;39.556;2022-08-18T11:02:37;37.89;41.75
66053;HTU21D;52833;45.112;39.556;2022-08-18T11:05:11;37.97;41.45
66053;HTU21D;52833;45.112;39.556;2022-08-18T11:07:47;37.99;41.23
66053;HTU21D;52833;45.112;39.556;2022-08-18T11:10:18;37.96;41.02
66053;HTU21D;52833;45.112;39.556;2022-08-18T11:15:46;37.99;41.13
66053;HTU21D;52833;45.112;39.556;2022-08-18T11:18:31;38.00;41.07
66053;HTU21D;52833;45.112;39.556;2022-08-18T11:21:42;37.97;40.59
66053;HTU21D;52833;45.112;39.556;2022-08-18T11:24:15;37.97;40.87
66053;HTU21D;52833;45.112;39.556;2022-08-18T11:26:57;37.97;40.69
66053;HTU21D;52833;45.112;39.556;2022-08-18T11:29:34;37.99;40.65
66053;HTU21D;52833;45.112;39.556;2022-08-18T11:37:34;38.06;40.71
66053;HTU21D;52833;45.112;39.556;2022-08-18T11:40:05;38.09;40.83
66053;HTU21D;52833;45.112;39.556;2022-08-18T11:42:37;38.12;40.87
66053;HTU21D;52833;45.112;39.556;2022-08-18T11:45:17;38.11;40.84
66053;HTU21D;52833;45.112;39.556;2022-08-18T11:56:15;38.12;40.71
66053;HTU21D;52833;45.112;39.556;2022-08-18T11:58:44;38.16;40.77
66053;HTU21D;52833;45.112;39.556;2022-08-18T12:12:28;38.32;40.67
66053;HTU21D;52833;45.112;39.556;2022-08-18T12:17:37;38.38;40.23
66053;HTU21D;52833;45.112;39.556;2022-08-18T12:20:04;38.35;40.12
66053;HTU21D;52833;45.112;39.556;2022-08-18T12:22:35;38.35;40.17
66053;HTU21D;52833;45.112;39.556;2022-08-18T12:25:05;38.36;40.01
66053;HTU21D;52833;45.112;39.556;2022-08-18T12:27:33;38.33;39.96
66053;HTU21D;52833;45.112;39.556;2022-08-18T12:30:01;38.31;40.00
66053;HTU21D;52833;45.112;39.556;2022-08-18T12:32:30;38.29;40.03
66053;HTU21D;52833;45.112;39.556;2022-08-18T12:34:59;38.22;40.03
66053;HTU21D;52833;45.112;39.556;2022-08-18T12:37:27;38.12;40.27
66053;HTU21D;52833;45.112;39.556;2022-08-18T12:39:55;38.06;40.22
66053;HTU21D;52833;45.112;39.556;2022-08-18T12:42:24;38.00;40.34
66053;HTU21D;52833;45.112;39.556;2022-08-18T12:44:51;37.94;40.43
66053;HTU21D;52833;45.112;39.556;2022-08-18T12:47:21;37.90;40.51
66053;HTU21D;52833;45.112;39.556;2022-08-18T12:49:49;37.82;40.45
66053;HTU21D;52833;45.112;39.556;2022-08-18T12:52:16;37.76;40.46
66053;HTU21D;52833;45.112;39.556;2022-08-18T12:54:42;37.70;40.47
66053;HTU21D;52833;45.112;39.556;2022-08-18T12:57:23;37.55;40.63
66053;HTU21D;52833;45.112;39.556;2022-08-18T12:59:50;37.45;40.93
66053;HTU21D;52833;45.112;39.556;2022-08-18T13:02:17;37.36;41.07
66053;HTU21D;52833;45.112;39.556;2022-08-18T13:04:44;37.28;41.19
66053;HTU21D;52833;45.112;39.556;2022-08-18T13:07:13;37.15;41.07
66053;HTU21D;52833;45.112;39.556;2022-08-18T13:10:05;36.95;41.04
66053;HTU21D;52833;45.112;39.556;2022-08-18T13:12:32;36.80;41.53
66053;HTU21D;52833;45.112;39.556;2022-08-18T13:14:59;36.69;41.75
66053;HTU21D;52833;45.112;39.556;2022-08-18T13:17:26;36.63;41.99
66053;HTU21D;52833;45.112;39.556;2022-08-18T13:33:29;36.78;40.68
66053;HTU21D;52833;45.112;39.556;2022-08-18T13:35:58;36.78;40.70
66053;HTU21D;52833;45.112;39.556;2022-08-18T13:38:25;36.78;40.81
66053;HTU21D;52833;45.112;39.556;2022-08-18T13:40:53;36.76;40.81
66053;HTU21D;52833;45.112;39.556;2022-08-18T13:43:26;36.73;40.90
66053;HTU21D;52833;45.112;39.556;2022-08-18T13:45:55;36.66;40.80
66053;HTU21D;52833;45.112;39.556;2022-08-18T13:48:24;36.58;40.75
66053;HTU21D;52833;45.112;39.556;2022-08-18T13:50:55;36.49;41.03
66053;HTU21D;52833;45.112;39.556;2022-08-18T13:53:25;36.45;41.21
66053;HTU21D;52833;45.112;39.556;2022-08-18T13:55:53;36.42;41.47
66053;HTU21D;52833;45.112;39.556;2022-08-18T13:58:23;36.43;41.52
66053;HTU21D;52833;45.112;39.556;2022-08-18T14:00:50;36.43;41.50
66053;HTU21D;52833;45.112;39.556;2022-08-18T14:03:21;36.41;41.54
66053;HTU21D;52833;45.112;39.556;2022-08-18T14:05:49;36.39;41.71
66053;HTU21D;52833;45.112;39.556;2022-08-18T14:08:19;36.37;41.80
66053;HTU21D;52833;45.112;39.556;2022-08-18T14:10:48;36.30;41.69
66053;HTU21D;52833;45.112;39.556;2022-08-18T14:13:16;36.24;41.74
66053;HTU21D;52833;45.112;39.556;2022-08-18T14:15:46;36.18;41.81
66053;HTU21D;52833;45.112;39.556;2022-08-18T14:18:13;36.12;41.62
66053;HTU21D;52833;45.112;39.556;2022-08-18T14:20:39;36.04;41.45
66053;HTU21D;52833;45.112;39.556;2022-08-18T14:23:25;35.93;41.54
66053;HTU21D;52833;45.112;39.556;2022-08-18T14:26:10;35.75;41.67
66053;HTU21D;52833;45.112;39.556;2022-08-18T14:28:56;35.57;41.79
66053;HTU21D;52833;45.112;39.556;2022-08-18T14:31:22;35.40;42.03
66053;HTU21D;52833;45.112;39.556;2022-08-18T14:33:49;35.23;42.41
66053;HTU21D;52833;45.112;39.556;2022-08-18T14:36:16;35.10;42.74
66053;HTU21D;52833;45.112;39.556;2022-08-18T14:38:42;35.00;42.90
66053;HTU21D;52833;45.112;39.556;2022-08-18T14:41:12;34.86;43.26
66053;HTU21D;52833;45.112;39.556;2022-08-18T14:43:40;34.74;43.71
66053;HTU21D;52833;45.112;39.556;2022-08-18T14:46:10;34.61;44.15
66053;HTU21D;52833;45.112;39.556;2022-08-18T14:48:40;34.52;44.58
66053;HTU21D;52833;45.112;39.556;2022-08-18T14:51:07;34.40;44.98
66053;HTU21D;52833;45.112;39.556;2022-08-18T14:53:35;34.30;45.27
66053;HTU21D;52833;45.112;39.556;2022-08-18T14:56:03;34.19;45.48
66053;HTU21D;52833;45.112;39.556;2022-08-18T14:58:31;34.08;45.79
66053;HTU21D;52833;45.112;39.556;2022-08-18T15:01:00;34.00;46.02
66053;HTU21D;52833;45.112;39.556;2022-08-18T15:03:29;33.88;46.29
66053;HTU21D;52833;45.112;39.556;2022-08-18T15:05:57;33.79;46.64
66053;HTU21D;52833;45.112;39.556;2022-08-18T15:08:24;33.66;47.02
66053;HTU21D;52833;45.112;39.556;2022-08-18T15:10:51;33.53;47.32
66053;HTU21D;52833;45.112;39.556;2022-08-18T15:13:17;33.40;47.70
66053;HTU21D;52833;45.112;39.556;2022-08-18T15:15:44;33.26;47.98
66053;HTU21D;52833;45.112;39.556;2022-08-18T15:18:11;33.13;48.34
66053;HTU21D;52833;45.112;39.556;2022-08-18T15:20:38;32.98;48.73
66053;HTU21D;52833;45.112;39.556;2022-08-18T15:23:25;32.81;49.03
66053;HTU21D;52833;45.112;39.556;2022-08-18T15:26:11;32.64;49.33
66053;HTU21D;52833;45.112;39.556;2022-08-18T15:28:37;32.52;49.56
66053;HTU21D;52833;45.112;39.556;2022-08-18T15:31:04;32.38;49.89
66053;HTU21D;52833;45.112;39.556;2022-08-18T15:33:31;32.26;50.14
66053;HTU21D;52833;45.112;39.556;2022-08-18T15:35:58;32.15;50.37
66053;HTU21D;52833;45.112;39.556;2022-08-18T15:38:29;32.03;50.62
66053;HTU21D;52833;45.112;39.556;2022-08-18T15:40:58;31.93;50.85
66053;HTU21D;52833;45.112;39.556;2022-08-18T15:43:26;31.82;51.13
66053;HTU21D;52833;45.112;39.556;2022-08-18T15:45:54;31.70;51.38
66053;HTU21D;52833;45.112;39.556;2022-08-18T15:48:21;31.58;51.59
66053;HTU21D;52833;45.112;39.556;2022-08-18T15:50:49;31.45;51.86
66053;HTU21D;52833;45.112;39.556;2022-08-18T15:53:20;31.34;52.16
66053;HTU21D;52833;45.112;39.556;2022-08-18T15:55:50;31.21;52.33
66053;HTU21D;52833;45.112;39.556;2022-08-18T15:58:18;31.08;52.52
66053;HTU21D;52833;45.112;39.556;2022-08-18T16:00:46;30.95;52.81
66053;HTU21D;52833;45.112;39.556;2022-08-18T16:03:15;30.82;53.06
66053;HTU21D;52833;45.112;39.556;2022-08-18T16:05:49;30.68;53.33
66053;HTU21D;52833;45.112;39.556;2022-08-18T16:08:18;30.57;53.52
66053;HTU21D;52833;45.112;39.556;2022-08-18T16:10:45;30.44;53.79
66053;HTU21D;52833;45.112;39.556;2022-08-18T16:13:11;30.31;54.06
66053;HTU21D;52833;45.112;39.556;2022-08-18T16:15:41;30.18;54.33
66053;HTU21D;52833;45.112;39.556;2022-08-18T16:18:09;30.06;54.58
66053;HTU21D;52833;45.112;39.556;2022-08-18T16:20:36;29.94;54.87
66053;HTU21D;52833;45.112;39.556;2022-08-18T16:23:03;29.82;55.12
66053;HTU21D;52833;45.112;39.556;2022-08-18T16:25:30;29.71;55.49
66053;HTU21D;52833;45.112;39.556;2022-08-18T16:27:58;29.60;55.72
66053;HTU21D;52833;45.112;39.556;2022-08-18T16:30:26;29.48;55.96
66053;HTU21D;52833;45.112;39.556;2022-08-18T16:32:53;29.36;56.17
66053;HTU21D;52833;45.112;39.556;2022-08-18T16:35:20;29.26;56.51
66053;HTU21D;52833;45.112;39.556;2022-08-18T16:37:48;29.16;56.81
66053;HTU21D;52833;45.112;39.556;2022-08-18T16:40:16;29.06;57.13
66053;HTU21D;52833;45.112;39.556;2022-08-18T16:42:44;28.94;57.38
66053;HTU21D;52833;45.112;39.556;2022-08-18T16:45:11;28.86;57.54
66053;HTU21D;52833;45.112;39.556;2022-08-18T16:47:39;28.76;57.84
66053;HTU21D;52833;45.112;39.556;2022-08-18T16:50:13;28.67;58.05
66053;HTU21D;52833;45.112;39.556;2022-08-18T16:52:41;28.57;58.23
66053;HTU21D;52833;45.112;39.556;2022-08-18T16:55:09;28.46;58.57
66053;HTU21D;52833;45.112;39.556;2022-08-18T16:57:41;28.38;59.00
66053;HTU21D;52833;45.112;39.556;2022-08-18T17:00:29;28.28;59.32
66053;HTU21D;52833;45.112;39.556;2022-08-18T17:03:17;28.18;59.66
66053;HTU21D;52833;45.112;39.556;2022-08-18T17:06:06;28.09;59.83
66053;HTU21D;52833;45.112;39.556;2022-08-18T17:08:34;28.00;59.97
66053;HTU21D;52833;45.112;39.556;2022-08-18T17:11:05;27.94;60.11
66053;HTU21D;52833;45.112;39.556;2022-08-18T17:13:32;27.85;60.24
66053;HTU21D;52833;45.112;39.556;2022-08-18T17:15:58;27.81;60.44
66053;HTU21D;52833;45.112;39.556;2022-08-18T17:18:25;27.72;60.67
66053;HTU21D;52833;45.112;39.556;2022-08-18T17:20:53;27.66;60.83
66053;HTU21D;52833;45.112;39.556;2022-08-18T17:23:20;27.58;60.95
66053;HTU21D;52833;45.112;39.556;2022-08-18T17:25:48;27.54;61.15
66053;HTU21D;52833;45.112;39.556;2022-08-18T17:28:17;27.46;61.39
66053;HTU21D;52833;45.112;39.556;2022-08-18T17:30:48;27.39;61.34
66053;HTU21D;52833;45.112;39.556;2022-08-18T17:33:20;27.34;61.62
66053;HTU21D;52833;45.112;39.556;2022-08-18T17:35:48;27.28;61.84
66053;HTU21D;52833;45.112;39.556;2022-08-18T17:41:05;27.16;62.73
66053;HTU21D;52833;45.112;39.556;2022-08-18T17:43:34;27.11;63.02
66053;HTU21D;52833;45.112;39.556;2022-08-18T17:46:19;27.06;63.36
66053;HTU21D;52833;45.112;39.556;2022-08-18T17:49:15;26.98;63.86
66053;HTU21D;52833;45.112;39.556;2022-08-18T17:51:47;26.94;64.19
66053;HTU21D;52833;45.112;39.556;2022-08-18T17:54:34;26.89;64.50
66053;HTU21D;52833;45.112;39.556;2022-08-18T17:57:28;26.84;64.63
66053;HTU21D;52833;45.112;39.556;2022-08-18T18:00:15;26.78;64.94
66053;HTU21D;52833;45.112;39.556;2022-08-18T18:02:44;26.71;65.13
66053;HTU21D;52833;45.112;39.556;2022-08-18T18:05:18;26.66;65.54
66053;HTU21D;52833;45.112;39.556;2022-08-18T18:10:40;26.55;65.88
66053;HTU21D;52833;45.112;39.556;2022-08-18T18:13:27;26.50;66.19
66053;HTU21D;52833;45.112;39.556;2022-08-18T18:18:52;26.38;66.91
66053;HTU21D;52833;45.112;39.556;2022-08-18T18:21:24;26.35;67.39
66053;HTU21D;52833;45.112;39.556;2022-08-18T18:23:58;26.31;67.62
66053;HTU21D;52833;45.112;39.556;2022-08-18T18:26:42;26.25;68.18
66053;HTU21D;52833;45.112;39.556;2022-08-18T18:32:28;26.19;68.84
66053;HTU21D;52833;45.112;39.556;2022-08-18T18:35:09;26.16;68.91
66053;HTU21D;52833;45.112;39.556;2022-08-18T18:40:36;26.10;69.39
66053;HTU21D;52833;45.112;39.556;2022-08-18T18:46:10;26.06;70.12
66053;HTU21D;52833;45.112;39.556;2022-08-18T18:51:56;26.05;70.77
66053;HTU21D;52833;45.112;39.556;2022-08-18T18:56:58;25.99;70.97
66053;HTU21D;52833;45.112;39.556;2022-08-18T19:05:16;25.93;71.11
66053;HTU21D;52833;45.112;39.556;2022-08-18T19:08:01;25.88;70.99
66053;HTU21D;52833;45.112;39.556;2022-08-18T19:10:43;25.87;70.97
66053;HTU21D;52833;45.112;39.556;2022-08-18T19:13:38;25.81;71.18
66053;HTU21D;52833;45.112;39.556;2022-08-18T19:16:19;25.77;71.18
66053;HTU21D;52833;45.112;39.556;2022-08-18T19:19:14;25.73;71.36
66053;HTU21D;52833;45.112;39.556;2022-08-18T19:21:45;25.69;71.49
66053;HTU21D;52833;45.112;39.556;2022-08-18T19:24:20;25.66;71.71